createdAt,value
2019-05-30T00:01:23.270Z,99555.36
2019-05-30T00:04:36.999Z,99560.38
2019-05-30T00:07:51.120Z,99560.13
2019-05-30T00:11:04.908Z,99558.85
2019-05-30T00:14:18.484Z,99558.57
2019-05-30T00:17:31.977Z,99559.63
2019-05-30T00:20:45.899Z,99567.09
2019-05-30T00:23:59.961Z,99567.36
2019-05-30T00:27:13.601Z,99568.11
2019-05-30T00:30:27.094Z,99569.16
2019-05-30T00:33:40.585Z,99569.77
2019-05-30T00:36:55.571Z,99569.77
2019-05-30T00:40:10.091Z,99568.59
2019-05-30T00:43:23.851Z,99567.31
2019-05-30T00:46:37.672Z,99565.38
2019-05-30T00:49:51.441Z,99570.62
2019-05-30T00:53:05.490Z,99577.83
2019-05-30T00:56:19.063Z,99575.22
2019-05-30T00:59:32.543Z,99574.42
2019-05-30T01:03:04.789Z,99571.34
2019-05-30T01:06:17.220Z,99571.05
2019-05-30T01:09:30.921Z,99571.52
2019-05-30T01:12:44.755Z,99568.69
2019-05-30T01:15:58.968Z,99565.97
2019-05-30T01:19:12.750Z,99563.73
2019-05-30T01:22:26.243Z,99567.06
2019-05-30T01:25:39.753Z,99563.44
2019-05-30T01:28:53.360Z,99566.06
2019-05-30T01:32:25.259Z,99561.66
2019-05-30T01:35:39.076Z,99560.50
2019-05-30T01:38:52.555Z,99555.45
2019-05-30T01:42:06.053Z,99553.86
2019-05-30T01:45:19.743Z,99556.52
2019-05-30T01:48:36.025Z,99558.16
2019-05-30T01:51:49.403Z,99556.97
2019-05-30T01:55:04.678Z,99558.87
2019-05-30T01:58:18.306Z,99548.71
2019-05-30T02:01:31.801Z,99547.94
2019-05-30T02:04:45.677Z,99546.12
2019-05-30T02:07:59.150Z,99546.33
2019-05-30T02:11:12.767Z,99542.45
2019-05-30T02:14:26.399Z,99549.33
2019-05-30T02:17:40.073Z,99549.80
2019-05-30T02:20:54.138Z,99542.86
2019-05-30T02:24:08.032Z,99545.23
2019-05-30T02:27:21.880Z,99543.02
2019-05-30T02:30:35.649Z,99544.00
2019-05-30T02:33:49.242Z,99548.94
2019-05-30T02:37:03.879Z,99546.45
2019-05-30T02:40:18.964Z,99553.59
2019-05-30T02:43:32.750Z,99548.66
2019-05-30T02:46:46.651Z,99544.54
2019-05-30T02:50:01.556Z,99545.00
2019-05-30T02:53:15.646Z,99551.13
2019-05-30T02:56:29.155Z,99554.97
2019-05-30T02:59:43.012Z,99558.27
2019-05-30T03:02:56.960Z,99565.98
2019-05-30T03:06:13.949Z,99564.81
2019-05-30T03:09:27.499Z,99563.25
2019-05-30T03:12:41.193Z,99573.57
2019-05-30T03:15:55.197Z,99569.57
2019-05-30T03:19:10.923Z,99566.68
2019-05-30T03:22:24.298Z,99568.64
2019-05-30T03:25:38.008Z,99573.09
2019-05-30T03:28:53.567Z,99578.98
2019-05-30T03:32:51.648Z,99587.02
2019-05-30T03:35:29.820Z,99596.23
2019-05-30T03:38:39.722Z,99591.11
2019-05-30T03:41:53.415Z,99598.19
2019-05-30T03:45:10.887Z,99598.63
2019-05-30T03:48:26.852Z,99598.92
2019-05-30T03:51:42.406Z,99604.94
2019-05-30T03:54:56.961Z,99606.53
2019-05-30T03:58:20.319Z,99608.32
2019-05-30T04:01:46.979Z,99618.11
2019-05-30T04:05:03.650Z,99618.16
2019-05-30T04:08:20.248Z,99616.66
2019-05-30T04:11:41.426Z,99613.92
2019-05-30T04:15:00.767Z,99608.80
2019-05-30T04:18:16.330Z,99613.70
2019-05-30T04:21:31.442Z,99610.67
2019-05-30T04:24:45.170Z,99610.27
2019-05-30T04:27:59.025Z,99612.77
2019-05-30T04:31:14.403Z,99612.47
2019-05-30T04:34:28.100Z,99624.71
2019-05-30T04:37:41.712Z,99615.86
2019-05-30T04:40:55.302Z,99615.09
2019-05-30T04:44:09.816Z,99612.11
2019-05-30T04:47:24.570Z,99609.15
2019-05-30T04:50:38.252Z,99614.73
2019-05-30T04:53:51.763Z,99610.63
2019-05-30T04:57:05.356Z,99610.84
2019-05-30T05:00:19.560Z,99611.61
2019-05-30T05:03:45.151Z,99612.84
2019-05-30T05:06:50.261Z,99617.93
2019-05-30T05:10:04.758Z,99619.95
2019-05-30T05:16:40.157Z,99606.50
2019-05-30T05:19:53.659Z,99610.35
2019-05-30T05:23:07.153Z,99620.00
2019-05-30T05:26:21.638Z,99622.89
2019-05-30T05:29:35.236Z,99616.33
2019-05-30T05:32:48.757Z,99619.59
2019-05-30T05:36:02.485Z,99622.33
2019-05-30T05:39:16.212Z,99621.19
2019-05-30T05:42:30.262Z,99621.62
2019-05-30T05:45:43.882Z,99628.19
2019-05-30T05:48:57.481Z,99633.44
2019-05-30T05:52:12.165Z,99629.06
2019-05-30T05:55:25.770Z,99629.20
2019-05-30T05:58:39.508Z,99632.19
2019-05-30T06:01:53.105Z,99633.88
2019-05-30T06:05:06.809Z,99637.72
2019-05-30T06:08:21.486Z,99641.44
2019-05-30T06:11:35.126Z,99643.86
2019-05-30T06:14:49.007Z,99650.09
2019-05-30T06:18:02.639Z,99642.80
2019-05-30T06:21:17.236Z,99646.12
2019-05-30T06:24:30.931Z,99647.05
2019-05-30T06:27:44.521Z,99641.41
2019-05-30T06:30:59.101Z,99642.66
2019-05-30T06:34:26.259Z,99639.74
2019-05-30T06:37:29.282Z,99643.98
2019-05-30T06:40:43.242Z,99639.55
2019-05-30T06:43:57.155Z,99640.05
2019-05-30T06:47:10.965Z,99642.94
2019-05-30T06:50:24.751Z,99642.68
2019-05-30T06:53:38.340Z,99649.19
2019-05-30T06:56:52.180Z,99643.69
2019-05-30T07:00:06.097Z,99644.27
2019-05-30T07:03:19.594Z,99643.61
2019-05-30T07:06:33.770Z,99640.01
2019-05-30T07:09:47.620Z,99639.94
2019-05-30T07:13:01.430Z,99644.09
2019-05-30T07:16:15.066Z,99646.83
2019-05-30T07:19:29.543Z,99655.28
2019-05-30T07:22:43.233Z,99648.75
2019-05-30T07:25:56.823Z,99650.42
2019-05-30T07:29:11.459Z,99649.73
2019-05-30T07:32:25.841Z,99651.25
2019-05-30T07:35:39.627Z,99649.42
2019-05-30T07:38:53.641Z,99644.81
2019-05-30T07:42:07.372Z,99647.11
2019-05-30T07:45:21.368Z,99651.59
2019-05-30T07:48:35.061Z,99653.04
2019-05-30T07:51:49.224Z,99651.77
2019-05-30T07:55:03.855Z,99655.56
2019-05-30T07:58:18.067Z,99652.78
2019-05-30T08:01:32.566Z,99657.70
2019-05-30T08:04:47.094Z,99661.28
2019-05-30T08:08:01.343Z,99658.98
2019-05-30T08:11:15.102Z,99658.13
2019-05-30T08:14:29.112Z,99657.66
2019-05-30T08:17:44.477Z,99654.93
2019-05-30T08:20:58.461Z,99657.81
2019-05-30T08:24:12.263Z,99656.82
2019-05-30T08:27:26.183Z,99655.05
2019-05-30T08:30:40.120Z,99658.45
2019-05-30T08:33:53.809Z,99662.21
2019-05-30T08:37:07.562Z,99662.22
2019-05-30T08:40:21.395Z,99671.05
2019-05-30T08:43:35.576Z,99669.09
2019-05-30T08:46:49.407Z,99657.77
2019-05-30T08:50:04.013Z,99670.94
2019-05-30T08:53:17.746Z,99672.74
2019-05-30T08:56:32.934Z,99665.63
2019-05-30T08:59:46.716Z,99664.51
2019-05-30T09:03:00.210Z,99661.02
2019-05-30T09:06:14.142Z,99663.27
2019-05-30T09:09:27.779Z,99663.77
2019-05-30T09:12:43.619Z,99661.27
2019-05-30T09:15:57.120Z,99658.48
2019-05-30T09:19:10.904Z,99657.55
2019-05-30T09:22:24.686Z,99657.73
2019-05-30T09:25:38.909Z,99656.33
2019-05-30T09:28:54.108Z,99649.56
2019-05-30T09:32:07.714Z,99654.00
2019-05-30T09:35:21.518Z,99655.77
2019-05-30T09:38:35.575Z,99659.92
2019-05-30T09:41:49.841Z,99660.42
2019-05-30T09:45:04.081Z,99660.00
2019-05-30T09:48:17.796Z,99649.16
2019-05-30T09:51:31.530Z,99649.09
2019-05-30T09:54:45.892Z,99652.13
2019-05-30T09:57:59.933Z,99651.42
2019-05-30T10:01:13.669Z,99657.17
2019-05-30T10:04:27.585Z,99645.30
2019-05-30T10:07:43.566Z,99641.17
2019-05-30T10:10:56.879Z,99638.28
2019-05-30T10:14:11.513Z,99634.03
2019-05-30T10:17:26.536Z,99636.25
2019-05-30T10:20:43.068Z,99629.63
2019-05-30T10:23:57.596Z,99620.63
2019-05-30T10:27:11.717Z,99622.58
2019-05-30T10:30:31.933Z,99618.93
2019-05-30T10:33:47.925Z,99626.48
2019-05-30T10:37:02.169Z,99616.81
2019-05-30T10:40:26.528Z,99616.08
2019-05-30T10:43:40.560Z,99622.25
2019-05-30T10:46:57.740Z,99615.63
2019-05-30T10:50:17.498Z,99621.66
2019-05-30T10:53:31.234Z,99628.28
2019-05-30T10:56:45.157Z,99623.40
2019-05-30T11:00:00.458Z,99624.97
2019-05-30T11:03:14.524Z,99623.98
2019-05-30T11:06:38.731Z,99619.77
2019-05-30T11:09:59.849Z,99623.16
2019-05-30T11:13:14.993Z,99626.75
2019-05-30T11:16:28.572Z,99624.52
2019-05-30T11:19:42.381Z,99621.59
2019-05-30T11:22:56.447Z,99618.55
2019-05-30T11:26:10.112Z,99622.98
2019-05-30T11:29:23.940Z,99623.59
2019-05-30T11:32:37.687Z,99618.51
2019-05-30T11:35:51.420Z,99616.26
2019-05-30T11:39:05.673Z,99617.72
2019-05-30T11:42:19.501Z,99621.36
2019-05-30T11:45:33.235Z,99611.05
2019-05-30T11:48:47.261Z,99624.33
2019-05-30T11:52:01.413Z,99614.78
2019-05-30T11:55:15.246Z,99610.13
2019-05-30T11:58:28.799Z,99615.39
2019-05-30T12:01:42.370Z,99611.20
2019-05-30T12:04:56.607Z,99621.89
2019-05-30T12:08:10.353Z,99622.28
2019-05-30T12:11:23.922Z,99616.81
2019-05-30T12:16:40.036Z,99623.33
2019-05-30T12:19:53.681Z,99617.55
2019-05-30T12:23:07.188Z,99615.67
2019-05-30T12:26:21.101Z,99626.74
2019-05-30T12:29:34.727Z,99623.92
2019-05-30T12:32:48.511Z,99614.05
2019-05-30T12:36:02.970Z,99623.12
2019-05-30T12:39:16.610Z,99629.86
2019-05-30T12:42:30.245Z,99624.97
2019-05-30T12:45:43.986Z,99627.54
2019-05-30T12:48:57.634Z,99620.26
2019-05-30T12:52:11.277Z,99626.05
2019-05-30T12:55:25.398Z,99628.30
2019-05-30T12:58:39.329Z,99630.67
2019-05-30T13:01:52.908Z,99628.64
2019-05-30T13:05:07.274Z,99621.91
2019-05-30T13:08:22.090Z,99624.63
2019-05-30T13:11:36.110Z,99622.42
2019-05-30T13:14:49.926Z,99626.53
2019-05-30T13:18:04.354Z,99622.30
2019-05-30T13:21:17.929Z,99620.13
2019-05-30T13:24:31.589Z,99617.39
2019-05-30T13:27:45.309Z,99622.20
2019-05-30T13:31:00.223Z,99624.23
2019-05-30T13:34:14.171Z,99608.98
2019-05-30T13:37:27.883Z,99615.80
2019-05-30T13:40:41.976Z,99617.58
2019-05-30T13:43:55.600Z,99611.41
2019-05-30T13:47:09.096Z,99622.07
2019-05-30T13:50:23.170Z,99623.40
2019-05-30T13:53:36.788Z,99614.98
2019-05-30T13:56:50.391Z,99619.47
2019-05-30T14:00:06.087Z,99621.81
2019-05-30T14:03:19.772Z,99616.36
2019-05-30T14:06:33.385Z,99621.66
2019-05-30T14:09:47.195Z,99613.44
2019-05-30T14:13:00.853Z,99612.87
2019-05-30T14:16:14.449Z,99616.52
2019-05-30T14:19:28.087Z,99620.20
2019-05-30T14:22:41.933Z,99615.93
2019-05-30T14:25:55.801Z,99614.50
2019-05-30T14:29:09.848Z,99612.22
2019-05-30T14:32:23.554Z,99610.32
2019-05-30T14:35:37.053Z,99616.26
2019-05-30T14:38:58.221Z,99614.50
2019-05-30T14:42:07.108Z,99621.05
2019-05-30T14:49:36.688Z,99623.02
2019-05-30T14:52:50.220Z,99625.82
2019-05-30T14:56:05.009Z,99629.05
2019-05-30T14:59:18.864Z,99622.55
2019-05-30T15:02:32.463Z,99624.34
2019-05-30T15:05:45.986Z,99619.05
2019-05-30T15:09:14.340Z,99626.58
2019-05-30T15:12:16.802Z,99628.39
2019-05-30T15:15:30.570Z,99622.48
2019-05-30T15:18:44.302Z,99615.44
2019-05-30T15:21:57.870Z,99622.88
2019-05-30T15:25:12.179Z,99627.23
2019-05-30T15:28:25.747Z,99626.89
2019-05-30T15:31:39.710Z,99614.46
2019-05-30T15:34:53.358Z,99608.97
2019-05-30T15:38:07.071Z,99618.39
2019-05-30T15:41:20.973Z,99613.93
2019-05-30T15:44:34.640Z,99620.98
2019-05-30T15:47:48.482Z,99619.20
2019-05-30T15:51:02.061Z,99615.05
2019-05-30T15:54:15.985Z,99614.89
2019-05-30T15:57:30.632Z,99615.23
2019-05-30T16:00:44.504Z,99605.96
2019-05-30T16:03:58.196Z,99610.34
2019-05-30T16:07:12.538Z,99600.33
2019-05-30T16:14:41.511Z,99595.03
2019-05-30T16:17:55.161Z,99603.70
2019-05-30T16:21:08.674Z,99592.98
2019-05-30T16:24:22.312Z,99584.55
2019-05-30T16:27:36.025Z,99579.55
2019-05-30T16:30:49.534Z,99589.06
2019-05-30T16:34:03.471Z,99581.80
2019-05-30T16:37:18.164Z,99578.22
2019-05-30T16:44:59.770Z,99569.92
2019-05-30T16:48:14.339Z,99565.11
2019-05-30T16:51:28.198Z,99571.73
2019-05-30T16:54:41.738Z,99581.09
2019-05-30T17:01:24.261Z,99582.30
2019-05-30T17:04:38.157Z,99581.13
2019-05-30T17:07:52.158Z,99566.56
2019-05-30T17:11:05.743Z,99565.03
2019-05-30T17:14:19.756Z,99571.47
2019-05-30T17:17:33.283Z,99560.56
2019-05-30T17:20:47.438Z,99564.13
2019-05-30T17:24:01.428Z,99568.56
2019-05-30T17:27:14.962Z,99568.55
2019-05-30T17:30:28.750Z,99569.45
2019-05-30T17:33:42.450Z,99575.79
2019-05-30T17:36:55.950Z,99577.62
2019-05-30T17:40:11.748Z,99579.05
2019-05-30T17:43:25.519Z,99588.32
2019-05-30T17:46:39.477Z,99587.31
2019-05-30T17:49:53.118Z,99596.86
2019-05-30T17:53:06.729Z,99598.25
2019-05-30T17:56:21.943Z,99603.13
2019-05-30T17:59:36.001Z,99611.20
2019-05-30T18:02:49.516Z,99609.47
2019-05-30T18:06:03.341Z,99613.97
2019-05-30T18:09:17.030Z,99617.08
2019-05-30T18:12:31.221Z,99617.97
2019-05-30T18:15:45.020Z,99615.52
2019-05-30T18:18:58.921Z,99611.16
2019-05-30T18:22:12.793Z,99608.47
2019-05-30T18:25:27.655Z,99613.59
2019-05-30T18:28:41.330Z,99614.00
2019-05-30T18:31:55.066Z,99612.53
2019-05-30T18:35:08.961Z,99618.33
2019-05-30T18:38:22.537Z,99621.88
2019-05-30T18:41:36.577Z,99616.91
2019-05-30T18:44:50.304Z,99626.30
2019-05-30T18:48:04.365Z,99628.13
2019-05-30T18:51:18.131Z,99627.91
2019-05-30T18:54:32.925Z,99631.83
2019-05-30T18:57:46.591Z,99636.66
2019-05-30T19:01:00.174Z,99641.73
2019-05-30T19:04:14.524Z,99649.38
2019-05-30T19:07:28.769Z,99649.50
2019-05-30T19:10:42.492Z,99649.11
2019-05-30T19:13:56.115Z,99648.67
2019-05-30T19:17:10.046Z,99654.06
2019-05-30T19:20:25.556Z,99647.14
2019-05-30T19:23:39.828Z,99648.52
2019-05-30T19:26:53.532Z,99652.48
2019-05-30T19:30:08.165Z,99660.07
2019-05-30T19:33:22.054Z,99668.20
2019-05-30T19:36:35.573Z,99665.16
2019-05-30T19:39:49.116Z,99673.32
2019-05-30T19:43:02.921Z,99676.70
2019-05-30T19:46:16.539Z,99685.11
2019-05-30T19:49:30.424Z,99691.95
2019-05-30T19:52:46.864Z,99698.70
2019-05-30T19:55:59.683Z,99698.30
2019-05-30T19:59:13.517Z,99704.86
2019-05-30T20:02:27.198Z,99708.81
2019-05-30T20:05:40.976Z,99705.80
2019-05-30T20:08:55.788Z,99706.58
2019-05-30T20:12:09.677Z,99712.02
2019-05-30T20:15:23.592Z,99721.25
2019-05-30T20:18:37.755Z,99723.89
2019-05-30T20:21:51.316Z,99721.09
2019-05-30T20:25:05.498Z,99713.61
2019-05-30T20:28:19.334Z,99718.30
2019-05-30T20:31:33.428Z,99723.61
2019-05-30T20:34:47.153Z,99725.11
2019-05-30T20:38:01.660Z,99728.67
2019-05-30T20:41:15.329Z,99725.14
2019-05-30T20:44:28.920Z,99726.96
2019-05-30T20:47:44.104Z,99730.97
2019-05-30T20:50:57.834Z,99720.38
2019-05-30T20:54:11.502Z,99718.03
2019-05-30T20:57:25.130Z,99724.02
2019-05-30T21:00:40.172Z,99730.77
2019-05-30T21:03:54.539Z,99733.56
2019-05-30T21:07:09.015Z,99741.61
2019-05-30T21:10:22.626Z,99742.91
2019-05-30T21:16:42.032Z,99735.83
2019-05-30T21:19:55.948Z,99741.89
2019-05-30T21:23:09.447Z,99736.67
2019-05-30T21:26:23.064Z,99732.50
2019-05-30T21:29:36.823Z,99743.91
2019-05-30T21:32:50.662Z,99739.67
2019-05-30T21:36:04.794Z,99738.54
2019-05-30T21:39:18.674Z,99733.84
2019-05-30T21:42:32.266Z,99745.70
2019-05-30T21:45:46.862Z,99746.42
2019-05-30T21:49:00.566Z,99744.89
2019-05-30T21:52:14.185Z,99744.89
2019-05-30T21:55:27.821Z,99748.77
2019-05-30T21:58:42.160Z,99745.70
2019-05-30T22:01:57.453Z,99741.00
2019-05-30T22:05:11.530Z,99744.52
2019-05-30T22:08:25.015Z,99743.03
2019-05-30T22:11:38.868Z,99745.86
2019-05-30T22:14:52.514Z,99739.63
2019-05-30T22:18:06.013Z,99733.36
2019-05-30T22:21:19.750Z,99731.17
2019-05-30T22:24:33.346Z,99733.36
2019-05-30T22:27:48.213Z,99734.09
2019-05-30T22:31:02.051Z,99725.14
2019-05-30T22:34:15.542Z,99717.02
2019-05-30T22:37:29.059Z,99726.41
2019-05-30T22:40:43.697Z,99716.81
2019-05-30T22:43:57.250Z,99722.68
2019-05-30T22:47:10.788Z,99722.28
2019-05-30T22:50:24.277Z,99720.30
2019-05-30T22:53:37.786Z,99717.63
2019-05-30T22:56:51.546Z,99721.42
2019-05-30T23:00:05.358Z,99717.55
2019-05-30T23:03:19.171Z,99722.20
2019-05-30T23:06:32.775Z,99716.05
2019-05-30T23:09:47.514Z,99723.48
2019-05-30T23:13:01.234Z,99721.27
2019-05-30T23:16:14.817Z,99723.57
2019-05-30T23:19:28.346Z,99718.63
2019-05-30T23:22:41.854Z,99715.73
2019-05-30T23:25:55.495Z,99705.89
2019-05-30T23:29:09.074Z,99714.78
2019-05-30T23:32:22.614Z,99709.77
2019-05-30T23:35:36.122Z,99705.77
2019-05-30T23:38:50.720Z,99708.77
2019-05-30T23:42:04.401Z,99705.13
2019-05-30T23:45:18.103Z,99714.10
2019-05-30T23:48:31.703Z,99714.27
2019-05-30T23:51:45.506Z,99715.72
2019-05-30T23:55:01.956Z,99718.23
2019-05-30T23:58:14.642Z,99711.80
